createdAt,value
2018-12-25T00:00:25.989Z,-4.79
2018-12-25T00:01:26.010Z,-4.87
2018-12-25T00:02:26.029Z,-4.98
2018-12-25T00:03:26.094Z,-4.94
2018-12-25T00:04:26.076Z,-4.97
2018-12-25T00:05:26.091Z,-4.94
2018-12-25T00:06:26.113Z,-5.01
2018-12-25T00:07:26.138Z,-4.95
2018-12-25T00:08:26.156Z,-4.92
2018-12-25T00:09:26.180Z,-4.91
2018-12-25T00:10:26.202Z,-4.88
2018-12-25T00:11:26.224Z,-4.91
2018-12-25T00:12:26.241Z,-4.97
2018-12-25T00:13:26.262Z,-4.95
2018-12-25T00:14:26.287Z,-4.91
2018-12-25T00:15:26.308Z,-5.00
2018-12-25T00:16:26.325Z,-4.91
2018-12-25T00:17:26.346Z,-5.01
2018-12-25T00:18:26.367Z,-5.01
2018-12-25T00:19:26.387Z,-5.02
2018-12-25T00:20:26.412Z,-5.02
2018-12-25T00:21:26.433Z,-5.12
2018-12-25T00:22:26.452Z,-5.00
2018-12-25T00:23:26.472Z,-5.02
2018-12-25T00:24:26.492Z,-5.06
2018-12-25T00:25:26.514Z,-5.05
2018-12-25T00:26:26.534Z,-5.08
2018-12-25T00:27:26.556Z,-4.94
2018-12-25T00:28:26.577Z,-5.01
2018-12-25T00:29:26.596Z,-4.98
2018-12-25T00:30:26.619Z,-5.06
2018-12-25T00:31:26.641Z,-5.00
2018-12-25T00:32:26.659Z,-5.13
2018-12-25T00:33:26.682Z,-5.17
2018-12-25T00:34:26.705Z,-5.09
2018-12-25T00:35:26.726Z,-5.08
2018-12-25T00:36:26.746Z,-5.01
2018-12-25T00:37:26.766Z,-5.02
2018-12-25T00:38:26.787Z,-5.08
2018-12-25T00:39:26.810Z,-5.09
2018-12-25T00:40:26.829Z,-4.95
2018-12-25T00:41:26.853Z,-4.90
2018-12-25T00:42:26.874Z,-4.84
2018-12-25T00:43:26.892Z,-4.92
2018-12-25T00:44:26.916Z,-4.91
2018-12-25T00:45:26.933Z,-4.77
2018-12-25T00:46:26.957Z,-4.77
2018-12-25T00:47:26.979Z,-4.73
2018-12-25T00:48:26.998Z,-4.81
2018-12-25T00:49:27.022Z,-4.73
2018-12-25T00:50:27.042Z,-4.73
2018-12-25T00:51:27.063Z,-4.62
2018-12-25T00:52:27.082Z,-4.52
2018-12-25T00:53:27.109Z,-4.56
2018-12-25T00:54:27.128Z,-4.55
2018-12-25T00:55:27.146Z,-4.47
2018-12-25T00:56:27.168Z,-4.42
2018-12-25T00:57:27.190Z,-4.38
2018-12-25T00:58:27.214Z,-4.33
2018-12-25T00:59:27.233Z,-4.33
2018-12-25T01:00:27.252Z,-4.26
2018-12-25T01:01:27.274Z,-4.24
2018-12-25T01:02:27.304Z,-4.19
2018-12-25T01:03:27.316Z,-4.17
2018-12-25T01:04:27.340Z,-4.22
2018-12-25T01:05:27.363Z,-4.27
2018-12-25T01:06:27.385Z,-4.14
2018-12-25T01:07:27.408Z,-4.13
2018-12-25T01:08:27.429Z,-4.08
2018-12-25T01:09:27.446Z,-4.05
2018-12-25T01:10:27.470Z,-4.08
2018-12-25T01:11:27.489Z,-4.08
2018-12-25T01:12:27.509Z,-3.98
2018-12-25T01:13:27.531Z,-3.99
2018-12-25T01:14:27.553Z,-3.96
2018-12-25T01:15:27.575Z,-4.01
2018-12-25T01:16:27.596Z,-3.98
2018-12-25T01:17:27.616Z,-3.98
2018-12-25T01:18:27.641Z,-4.04
2018-12-25T01:19:27.662Z,-3.99
2018-12-25T01:20:27.686Z,-3.98
2018-12-25T01:21:27.702Z,-4.01
2018-12-25T01:22:27.726Z,-3.91
2018-12-25T01:23:27.745Z,-3.91
2018-12-25T01:24:27.767Z,-3.94
2018-12-25T01:25:27.787Z,-3.99
2018-12-25T01:26:27.811Z,-4.04
2018-12-25T01:27:27.833Z,-3.91
2018-12-25T01:28:27.853Z,-3.95
2018-12-25T01:29:27.877Z,-3.95
2018-12-25T01:30:27.895Z,-3.98
2018-12-25T01:31:27.918Z,-3.95
2018-12-25T01:32:27.939Z,-3.95
2018-12-25T01:33:27.961Z,-3.95
2018-12-25T01:34:27.982Z,-3.91
2018-12-25T01:35:28.007Z,-3.95
2018-12-25T01:36:28.028Z,-3.88
2018-12-25T01:37:28.045Z,-3.96
2018-12-25T01:38:28.068Z,-3.94
2018-12-25T01:39:28.092Z,-3.84
2018-12-25T01:40:28.113Z,-3.85
2018-12-25T01:41:28.133Z,-3.83
2018-12-25T01:42:28.153Z,-3.85
2018-12-25T01:43:28.175Z,-3.84
2018-12-25T01:44:28.196Z,-3.84
2018-12-25T01:45:28.221Z,-3.83
2018-12-25T01:46:28.240Z,-3.85
2018-12-25T01:47:28.266Z,-3.84
2018-12-25T01:48:28.285Z,-3.83
2018-12-25T01:49:31.952Z,-3.77
2018-12-25T01:50:28.329Z,-3.85
2018-12-25T01:51:28.347Z,-3.69
2018-12-25T01:52:28.368Z,-3.75
2018-12-25T01:53:28.388Z,-3.81
2018-12-25T01:54:28.413Z,-3.81
2018-12-25T01:55:28.433Z,-3.78
2018-12-25T01:56:28.454Z,-3.71
2018-12-25T01:57:28.477Z,-3.74
2018-12-25T01:58:28.497Z,-3.75
2018-12-25T01:59:28.518Z,-3.78
2018-12-25T02:00:28.540Z,-3.68
2018-12-25T02:01:28.563Z,-3.66
2018-12-25T02:02:28.587Z,-3.78
2018-12-25T02:03:28.604Z,-3.66
2018-12-25T02:04:28.634Z,-3.65
2018-12-25T02:05:28.652Z,-3.66
2018-12-25T02:06:28.674Z,-3.69
2018-12-25T02:07:28.746Z,-3.64
2018-12-25T02:08:28.712Z,-3.68
2018-12-25T02:09:28.734Z,-3.71
2018-12-25T02:10:28.758Z,-3.66
2018-12-25T02:11:28.778Z,-3.65
2018-12-25T02:12:28.803Z,-3.61
2018-12-25T02:13:28.822Z,-3.62
2018-12-25T02:14:28.846Z,-3.64
2018-12-25T02:15:28.870Z,-3.61
2018-12-25T02:16:28.889Z,-3.65
2018-12-25T02:17:28.907Z,-3.65
2018-12-25T02:18:28.932Z,-3.53
2018-12-25T02:19:28.955Z,-3.55
2018-12-25T02:20:28.971Z,-3.55
2018-12-25T02:21:28.993Z,-3.55
2018-12-25T02:22:29.016Z,-3.50
2018-12-25T02:23:29.039Z,-3.47
2018-12-25T02:24:29.061Z,-3.47
2018-12-25T02:25:29.084Z,-3.56
2018-12-25T02:26:29.104Z,-3.41
2018-12-25T02:27:29.128Z,-3.47
2018-12-25T02:28:29.144Z,-3.50
2018-12-25T02:29:29.166Z,-3.50
2018-12-25T02:30:29.188Z,-3.40
2018-12-25T02:31:29.336Z,-3.32
2018-12-25T02:32:29.231Z,-3.40
2018-12-25T02:33:29.255Z,-3.30
2018-12-25T02:34:29.274Z,-3.40
2018-12-25T02:35:29.302Z,-3.32
2018-12-25T02:36:29.319Z,-3.37
2018-12-25T02:37:29.341Z,-3.38
2018-12-25T02:38:29.367Z,-3.37
2018-12-25T02:39:29.386Z,-3.36
2018-12-25T02:40:29.405Z,-3.33
2018-12-25T02:41:29.427Z,-3.27
2018-12-25T02:42:29.458Z,-3.25
2018-12-25T02:43:29.475Z,-3.26
2018-12-25T02:44:29.494Z,-3.22
2018-12-25T02:45:29.525Z,-3.23
2018-12-25T02:46:29.538Z,-3.20
2018-12-25T02:47:29.558Z,-3.22
2018-12-25T02:48:29.587Z,-3.25
2018-12-25T02:49:29.606Z,-3.27
2018-12-25T02:50:29.694Z,-3.33
2018-12-25T02:51:29.647Z,-3.20
2018-12-25T02:52:29.665Z,-3.26
2018-12-25T02:53:29.693Z,-3.26
2018-12-25T02:54:29.714Z,-3.25
2018-12-25T02:55:29.733Z,-3.29
2018-12-25T02:56:29.755Z,-3.25
2018-12-25T02:57:29.774Z,-3.19
2018-12-25T02:58:29.796Z,-3.20
2018-12-25T02:59:29.818Z,-3.15
2018-12-25T03:00:29.839Z,-3.23
2018-12-25T03:01:29.863Z,-3.17
2018-12-25T03:02:29.886Z,-3.20
2018-12-25T03:03:29.906Z,-3.17
2018-12-25T03:04:29.927Z,-3.14
2018-12-25T03:05:29.953Z,-3.14
2018-12-25T03:06:29.971Z,-3.17
2018-12-25T03:07:29.996Z,-3.01
2018-12-25T03:08:30.031Z,-3.12
2018-12-25T03:09:30.036Z,-3.14
2018-12-25T03:10:30.057Z,-3.04
2018-12-25T03:11:30.084Z,-3.02
2018-12-25T03:12:30.103Z,-3.02
2018-12-25T03:13:30.123Z,-2.98
2018-12-25T03:14:30.148Z,-2.94
2018-12-25T03:15:30.171Z,-3.02
2018-12-25T03:16:30.189Z,-2.98
2018-12-25T03:17:30.210Z,-3.02
2018-12-25T03:18:30.239Z,-2.98
2018-12-25T03:19:30.257Z,-2.87
2018-12-25T03:20:30.275Z,-2.94
2018-12-25T03:21:30.304Z,-2.93
2018-12-25T03:22:30.334Z,-2.87
2018-12-25T03:23:30.345Z,-2.94
2018-12-25T03:24:30.364Z,-2.86
2018-12-25T03:25:30.389Z,-2.93
2018-12-25T03:26:30.410Z,-2.86
2018-12-25T03:27:30.429Z,-2.93
2018-12-25T03:28:30.451Z,-2.81
2018-12-25T03:29:30.472Z,-2.86
2018-12-25T03:30:30.497Z,-2.78
2018-12-25T03:31:30.521Z,-2.87
2018-12-25T03:32:30.570Z,-2.83
2018-12-25T03:33:30.561Z,-2.80
2018-12-25T03:34:30.584Z,-2.78
2018-12-25T03:35:30.604Z,-2.80
2018-12-25T03:36:30.739Z,-2.69
2018-12-25T03:37:30.649Z,-2.70
2018-12-25T03:38:30.679Z,-2.78
2018-12-25T03:39:30.694Z,-2.73
2018-12-25T03:40:30.717Z,-2.68
2018-12-25T03:41:30.741Z,-2.68
2018-12-25T03:42:30.761Z,-2.69
2018-12-25T03:43:30.781Z,-2.63
2018-12-25T03:44:30.810Z,-2.69
2018-12-25T03:45:30.825Z,-2.65
2018-12-25T03:46:30.847Z,-2.58
2018-12-25T03:47:30.869Z,-2.58
2018-12-25T03:48:30.899Z,-2.65
2018-12-25T03:49:30.915Z,-2.57
2018-12-25T03:50:30.935Z,-2.51
2018-12-25T03:51:30.956Z,-2.63
2018-12-25T03:52:30.980Z,-2.63
2018-12-25T03:53:31.001Z,-2.55
2018-12-25T03:54:31.025Z,-2.66
2018-12-25T03:55:31.044Z,-2.63
2018-12-25T03:56:31.066Z,-2.65
2018-12-25T03:57:31.089Z,-2.57
2018-12-25T03:58:31.112Z,-2.62
2018-12-25T03:59:31.134Z,-2.63
2018-12-25T04:00:31.155Z,-2.51
2018-12-25T04:01:31.176Z,-2.57
2018-12-25T04:02:31.201Z,-2.54
2018-12-25T04:03:31.220Z,-2.55
2018-12-25T04:04:31.242Z,-2.51
2018-12-25T04:05:31.265Z,-2.54
2018-12-25T04:06:31.286Z,-2.63
2018-12-25T04:07:31.309Z,-2.57
2018-12-25T04:08:31.329Z,-2.51
2018-12-25T04:09:31.353Z,-2.61
2018-12-25T04:10:31.473Z,-2.54
2018-12-25T04:11:31.395Z,-2.61
2018-12-25T04:12:31.430Z,-2.54
2018-12-25T04:13:31.441Z,-2.48
2018-12-25T04:14:31.463Z,-2.50
2018-12-25T04:15:31.488Z,-2.50
2018-12-25T04:16:31.507Z,-2.51
2018-12-25T04:17:31.528Z,-2.40
2018-12-25T04:18:31.551Z,-2.42
2018-12-25T04:19:31.576Z,-2.42
2018-12-25T04:20:31.595Z,-2.34
2018-12-25T04:21:31.618Z,-2.37
2018-12-25T04:22:31.638Z,-2.39
2018-12-25T04:23:31.661Z,-2.34
2018-12-25T04:24:31.682Z,-2.37
2018-12-25T04:25:31.710Z,-2.22
2018-12-25T04:26:31.728Z,-2.37
2018-12-25T04:27:31.750Z,-2.26
2018-12-25T04:28:31.778Z,-2.26
2018-12-25T04:29:31.793Z,-2.32
2018-12-25T04:30:31.814Z,-2.28
2018-12-25T04:31:31.838Z,-2.28
2018-12-25T04:32:31.858Z,-2.25
2018-12-25T04:33:31.896Z,-2.29
2018-12-25T04:34:31.904Z,-2.20
2018-12-25T04:35:31.926Z,-2.20
2018-12-25T04:36:31.946Z,-2.29
2018-12-25T04:37:31.973Z,-2.15
2018-12-25T04:38:31.994Z,-2.15
2018-12-25T04:39:32.016Z,-2.25
2018-12-25T04:40:32.034Z,-2.15
2018-12-25T04:41:32.060Z,-2.25
2018-12-25T04:42:32.080Z,-2.18
2018-12-25T04:43:32.104Z,-2.14
2018-12-25T04:44:32.128Z,-2.26
2018-12-25T04:45:32.153Z,-2.25
2018-12-25T04:46:32.166Z,-2.23
2018-12-25T04:47:32.191Z,-2.26
2018-12-25T04:48:32.208Z,-2.26
2018-12-25T04:49:32.238Z,-2.33
2018-12-25T04:50:32.257Z,-2.29
2018-12-25T04:51:32.278Z,-2.28
2018-12-25T04:52:32.297Z,-2.22
2018-12-25T04:53:32.326Z,-2.28
2018-12-25T04:54:32.342Z,-2.26
2018-12-25T04:55:32.366Z,-2.37
2018-12-25T04:56:32.387Z,-2.28
2018-12-25T04:57:32.408Z,-2.29
2018-12-25T04:58:32.431Z,-2.29
2018-12-25T04:59:32.454Z,-2.28
2018-12-25T05:00:32.489Z,-2.34
2018-12-25T05:01:32.496Z,-2.26
2018-12-25T05:02:32.518Z,-2.25
2018-12-25T05:03:32.541Z,-2.23
2018-12-25T05:04:32.562Z,-2.32
2018-12-25T05:05:32.594Z,-2.26
2018-12-25T05:06:32.607Z,-2.20
2018-12-25T05:07:32.629Z,-2.23
2018-12-25T05:08:32.650Z,-2.18
2018-12-25T05:09:32.674Z,-2.15
2018-12-25T05:10:32.698Z,-2.10
2018-12-25T05:11:32.723Z,-2.17
2018-12-25T05:12:32.742Z,-2.22
2018-12-25T05:13:32.763Z,-2.15
2018-12-25T05:14:32.879Z,-2.14
2018-12-25T05:15:32.805Z,-2.14
2018-12-25T05:16:32.832Z,-2.14
2018-12-25T05:17:32.850Z,-2.13
2018-12-25T05:18:32.874Z,-2.08
2018-12-25T05:19:32.894Z,-2.10
2018-12-25T05:20:37.901Z,-2.13
2018-12-25T05:21:32.941Z,-2.13
2018-12-25T05:22:32.962Z,-2.13
2018-12-25T05:23:32.984Z,-2.08
2018-12-25T05:24:33.003Z,-2.10
2018-12-25T05:25:33.029Z,-2.11
2018-12-25T05:26:33.050Z,-2.07
2018-12-25T05:27:33.071Z,-2.13
2018-12-25T05:28:33.093Z,-2.07
2018-12-25T05:29:33.115Z,-2.04
2018-12-25T05:30:33.139Z,-2.10
2018-12-25T05:31:33.160Z,-2.11
2018-12-25T05:32:33.181Z,-2.10
2018-12-25T05:33:33.204Z,-2.02
2018-12-25T05:34:33.226Z,-2.04
2018-12-25T05:35:33.246Z,-2.10
2018-12-25T05:36:33.269Z,-2.14
2018-12-25T05:37:33.295Z,-1.99
2018-12-25T05:38:33.315Z,-2.02
2018-12-25T05:39:33.337Z,-2.11
2018-12-25T05:40:33.358Z,-2.02
2018-12-25T05:41:33.379Z,-2.00
2018-12-25T05:42:33.402Z,-2.00
2018-12-25T05:43:33.427Z,-1.92
2018-12-25T05:44:33.448Z,-2.02
2018-12-25T05:45:33.470Z,-1.97
2018-12-25T05:46:33.490Z,-2.00
2018-12-25T05:47:33.515Z,-1.93
2018-12-25T05:48:33.534Z,-1.96
2018-12-25T05:49:33.555Z,-1.94
2018-12-25T05:50:33.581Z,-1.92
2018-12-25T05:51:33.605Z,-1.86
2018-12-25T05:52:33.626Z,-1.94
2018-12-25T05:53:33.646Z,-1.96
2018-12-25T05:54:33.670Z,-1.96
2018-12-25T05:55:33.692Z,-1.99
2018-12-25T05:56:33.709Z,-1.89
2018-12-25T05:57:33.731Z,-1.92
2018-12-25T05:58:33.754Z,-1.92
2018-12-25T05:59:33.783Z,-1.92
2018-12-25T06:00:33.799Z,-1.94
2018-12-25T06:01:33.822Z,-1.93
2018-12-25T06:02:33.843Z,-1.92
2018-12-25T06:03:33.864Z,-1.93
2018-12-25T06:04:33.886Z,-1.92
2018-12-25T06:05:33.912Z,-1.84
2018-12-25T06:06:33.931Z,-1.93
2018-12-25T06:07:33.955Z,-1.87
2018-12-25T06:08:33.973Z,-1.89
2018-12-25T06:09:33.999Z,-1.92
2018-12-25T06:10:34.019Z,-1.90
2018-12-25T06:11:34.039Z,-1.92
2018-12-25T06:12:34.061Z,-1.87
2018-12-25T06:13:34.083Z,-1.89
2018-12-25T06:14:34.108Z,-1.87
2018-12-25T06:15:34.128Z,-1.86
2018-12-25T06:16:34.150Z,-1.81
2018-12-25T06:17:34.171Z,-1.86
2018-12-25T06:18:34.196Z,-1.90
2018-12-25T06:19:34.214Z,-1.84
2018-12-25T06:20:34.238Z,-1.84
2018-12-25T06:21:34.258Z,-1.86
2018-12-25T06:22:34.281Z,-1.86
2018-12-25T06:23:34.302Z,-1.84
2018-12-25T06:24:34.327Z,-1.82
2018-12-25T06:25:34.361Z,-1.90
2018-12-25T06:26:34.368Z,-1.82
2018-12-25T06:27:34.390Z,-1.81
2018-12-25T06:28:34.411Z,-1.81
2018-12-25T06:29:34.433Z,-1.84
2018-12-25T06:30:34.456Z,-1.84
2018-12-25T06:31:34.481Z,-1.82
2018-12-25T06:32:34.502Z,-1.84
2018-12-25T06:33:34.522Z,-1.84
2018-12-25T06:34:34.546Z,-1.76
2018-12-25T06:35:34.567Z,-1.75
2018-12-25T06:36:34.588Z,-1.76
2018-12-25T06:37:34.609Z,-1.76
2018-12-25T06:38:34.631Z,-1.74
2018-12-25T06:39:34.654Z,-1.72
2018-12-25T06:40:34.675Z,-1.71
2018-12-25T06:41:34.699Z,-1.75
2018-12-25T06:42:34.723Z,-1.74
2018-12-25T06:43:34.742Z,-1.74
2018-12-25T06:44:34.764Z,-1.74
2018-12-25T06:45:34.786Z,-1.66
2018-12-25T06:46:34.810Z,-1.60
2018-12-25T06:47:34.830Z,-1.71
2018-12-25T06:48:34.851Z,-1.66
2018-12-25T06:49:34.876Z,-1.53
2018-12-25T06:50:34.896Z,-1.58
2018-12-25T06:51:34.922Z,-1.61
2018-12-25T06:52:34.941Z,-1.61
2018-12-25T06:53:34.965Z,-1.56
2018-12-25T06:54:34.986Z,-1.54
2018-12-25T06:55:35.009Z,-1.60
2018-12-25T06:56:35.031Z,-1.60
2018-12-25T06:57:35.049Z,-1.57
2018-12-25T06:58:35.082Z,-1.53
2018-12-25T06:59:35.095Z,-1.57
2018-12-25T07:00:35.133Z,-1.54
2018-12-25T07:01:35.151Z,-1.51
2018-12-25T07:02:35.180Z,-1.54
2018-12-25T07:03:35.210Z,-1.58
2018-12-25T07:04:35.213Z,-1.46
2018-12-25T07:05:35.228Z,-1.46
2018-12-25T07:06:35.249Z,-1.58
2018-12-25T07:07:35.274Z,-1.58
2018-12-25T07:08:35.294Z,-1.51
2018-12-25T07:09:35.314Z,-1.58
2018-12-25T07:10:35.342Z,-1.50
2018-12-25T07:11:35.362Z,-1.54
2018-12-25T07:12:35.406Z,-1.57
2018-12-25T07:13:35.403Z,-1.51
2018-12-25T07:14:35.428Z,-1.46
2018-12-25T07:15:35.450Z,-1.46
2018-12-25T07:16:35.475Z,-1.51
2018-12-25T07:17:35.493Z,-1.56
2018-12-25T07:18:35.516Z,-1.45
2018-12-25T07:19:35.538Z,-1.54
2018-12-25T07:20:35.562Z,-1.48
2018-12-25T07:21:35.588Z,-1.54
2018-12-25T07:22:35.605Z,-1.42
2018-12-25T07:23:35.630Z,-1.35
2018-12-25T07:24:35.652Z,-1.42
2018-12-25T07:25:35.673Z,-1.42
2018-12-25T07:26:35.693Z,-1.39
2018-12-25T07:27:35.716Z,-1.42
2018-12-25T07:28:35.741Z,-1.48
2018-12-25T07:29:35.759Z,-1.30
2018-12-25T07:30:35.783Z,-1.33
2018-12-25T07:31:35.805Z,-1.36
2018-12-25T07:32:35.832Z,-1.35
2018-12-25T07:33:35.850Z,-1.36
2018-12-25T07:34:35.871Z,-1.38
2018-12-25T07:35:35.896Z,-1.39
2018-12-25T07:36:35.916Z,-1.40
2018-12-25T07:37:35.940Z,-1.35
2018-12-25T07:38:35.962Z,-1.45
2018-12-25T07:39:35.984Z,-1.45
2018-12-25T07:40:36.005Z,-1.38
2018-12-25T07:41:36.027Z,-1.39
2018-12-25T07:42:36.051Z,-1.36
2018-12-25T07:43:36.072Z,-1.39
2018-12-25T07:44:36.094Z,-1.39
2018-12-25T07:45:36.120Z,-1.35
2018-12-25T07:46:36.139Z,-1.39
2018-12-25T07:47:36.162Z,-1.39
2018-12-25T07:48:36.184Z,-1.29
2018-12-25T07:49:36.209Z,-1.36
2018-12-25T07:50:36.230Z,-1.36
2018-12-25T07:51:36.253Z,-1.40
2018-12-25T07:52:36.279Z,-1.33
2018-12-25T07:53:36.295Z,-1.30
2018-12-25T07:54:36.319Z,-1.35
2018-12-25T07:55:36.345Z,-1.32
2018-12-25T07:56:36.365Z,-1.32
2018-12-25T07:57:36.386Z,-1.32
2018-12-25T07:58:36.412Z,-1.32
2018-12-25T07:59:36.433Z,-1.27
2018-12-25T08:00:36.452Z,-1.22
2018-12-25T08:01:36.476Z,-1.30
2018-12-25T08:02:36.501Z,-1.22
2018-12-25T08:03:36.521Z,-1.29
2018-12-25T08:04:36.542Z,-1.22
2018-12-25T08:05:36.566Z,-1.22
2018-12-25T08:06:36.589Z,-1.18
2018-12-25T08:07:36.611Z,-1.21
2018-12-25T08:08:36.632Z,-1.17
2018-12-25T08:09:36.659Z,-1.19
2018-12-25T08:10:36.678Z,-1.12
2018-12-25T08:11:36.702Z,-1.09
2018-12-25T08:12:36.722Z,-1.07
2018-12-25T08:13:36.745Z,-1.14
2018-12-25T08:14:36.769Z,-1.17
2018-12-25T08:15:36.791Z,-1.14
2018-12-25T08:16:36.814Z,-1.01
2018-12-25T08:17:36.836Z,-1.06
2018-12-25T08:18:36.860Z,-1.04
2018-12-25T08:19:36.883Z,-1.00
2018-12-25T08:20:36.907Z,-1.04
2018-12-25T08:21:36.928Z,-1.04
2018-12-25T08:22:36.954Z,-1.00
2018-12-25T08:23:36.973Z,-0.97
2018-12-25T08:24:36.994Z,-0.91
2018-12-25T08:25:37.022Z,-0.93
2018-12-25T08:26:37.042Z,-0.87
2018-12-25T08:27:37.063Z,-0.87
2018-12-25T08:28:37.087Z,-0.94
2018-12-25T08:29:37.110Z,-0.93
2018-12-25T08:30:37.133Z,-0.93
2018-12-25T08:31:37.156Z,-0.93
2018-12-25T08:32:37.178Z,-0.93
2018-12-25T08:33:37.200Z,-0.93
2018-12-25T08:34:37.223Z,-0.89
2018-12-25T08:35:37.250Z,-0.81
2018-12-25T08:36:37.269Z,-0.80
2018-12-25T08:37:37.292Z,-0.81
2018-12-25T08:38:37.345Z,-0.81
2018-12-25T08:39:37.338Z,-0.82
2018-12-25T08:40:37.361Z,-0.87
2018-12-25T08:41:37.382Z,-0.78
2018-12-25T08:42:37.408Z,-0.81
2018-12-25T08:43:37.430Z,-0.85
2018-12-25T08:44:37.451Z,-0.82
2018-12-25T08:45:37.476Z,-0.80
2018-12-25T08:46:37.500Z,-0.85
2018-12-25T08:47:37.521Z,-0.87
2018-12-25T08:48:37.544Z,-0.82
2018-12-25T08:49:37.567Z,-0.74
2018-12-25T08:50:37.590Z,-0.75
2018-12-25T08:51:38.048Z,-0.75
2018-12-25T08:52:37.640Z,-0.69
2018-12-25T08:53:37.662Z,-0.62
2018-12-25T08:54:37.683Z,-0.62
2018-12-25T08:55:37.704Z,-0.63
2018-12-25T08:56:37.728Z,-0.63
2018-12-25T08:57:37.755Z,-0.60
2018-12-25T08:58:37.775Z,-0.62
2018-12-25T08:59:37.799Z,-0.64
2018-12-25T09:00:37.823Z,-0.66
2018-12-25T09:01:37.844Z,-0.56
2018-12-25T09:02:37.867Z,-0.57
2018-12-25T09:03:37.894Z,-0.60
2018-12-25T09:04:37.913Z,-0.54
2018-12-25T09:05:37.938Z,-0.57
2018-12-25T09:06:37.962Z,-0.57
2018-12-25T09:07:37.986Z,-0.59
2018-12-25T09:08:38.006Z,-0.62
2018-12-25T09:09:38.029Z,-0.56
2018-12-25T09:10:38.054Z,-0.45
2018-12-25T09:11:38.076Z,-0.46
2018-12-25T09:12:38.104Z,-0.44
2018-12-25T09:13:38.124Z,-0.44
2018-12-25T09:14:38.146Z,-0.45
2018-12-25T09:15:38.170Z,-0.28
2018-12-25T09:16:38.191Z,-0.30
2018-12-25T09:17:38.221Z,-0.18
2018-12-25T09:18:38.244Z,-0.05
2018-12-25T09:19:38.265Z,0.13
2018-12-25T09:20:38.287Z,0.36
2018-12-25T09:21:46.210Z,0.66
2018-12-25T09:22:38.333Z,0.70
2018-12-25T09:23:38.355Z,0.77
2018-12-25T09:24:38.383Z,0.67
2018-12-25T09:25:38.404Z,0.66
2018-12-25T09:26:38.429Z,0.55
2018-12-25T09:27:38.455Z,0.44
2018-12-25T09:28:38.477Z,0.44
2018-12-25T09:29:38.502Z,0.44
2018-12-25T09:30:38.527Z,0.29
2018-12-25T09:31:38.554Z,0.44
2018-12-25T09:32:38.574Z,0.39
2018-12-25T09:33:38.602Z,0.29
2018-12-25T09:34:38.624Z,0.44
2018-12-25T09:35:38.652Z,0.33
2018-12-25T09:36:38.674Z,0.26
2018-12-25T09:37:38.700Z,0.36
2018-12-25T09:38:38.719Z,0.36
2018-12-25T09:39:38.745Z,0.30
2018-12-25T09:40:38.770Z,0.29
2018-12-25T09:41:38.793Z,0.27
2018-12-25T09:42:38.820Z,0.31
2018-12-25T09:43:38.845Z,0.26
2018-12-25T09:44:38.868Z,0.42
2018-12-25T09:45:38.893Z,0.37
2018-12-25T09:46:38.918Z,0.37
2018-12-25T09:47:38.957Z,0.42
2018-12-25T09:48:38.980Z,0.40
2018-12-25T09:49:38.992Z,0.45
2018-12-25T09:50:39.111Z,0.42
2018-12-25T09:51:39.040Z,0.44
2018-12-25T09:52:39.061Z,0.42
2018-12-25T09:53:39.085Z,0.37
2018-12-25T09:54:39.112Z,0.36
2018-12-25T09:55:39.153Z,0.44
2018-12-25T09:56:39.158Z,0.42
2018-12-25T09:57:39.186Z,0.40
2018-12-25T09:58:39.207Z,0.30
2018-12-25T09:59:39.232Z,0.40
2018-12-25T10:00:39.255Z,0.39
2018-12-25T10:01:39.303Z,0.40
2018-12-25T10:02:39.308Z,0.48
2018-12-25T10:03:39.328Z,0.48
2018-12-25T10:04:39.352Z,0.55
2018-12-25T10:05:39.377Z,0.52
2018-12-25T10:06:39.402Z,0.58
2018-12-25T10:07:39.425Z,0.59
2018-12-25T10:08:39.450Z,0.55
2018-12-25T10:09:39.473Z,0.61
2018-12-25T10:10:39.498Z,0.68
2018-12-25T10:11:44.354Z,0.71
2018-12-25T10:12:39.548Z,0.73
2018-12-25T10:13:39.571Z,0.76
2018-12-25T10:14:39.690Z,0.73
2018-12-25T10:15:39.621Z,0.71
2018-12-25T10:16:39.643Z,0.73
2018-12-25T10:17:39.669Z,0.70
2018-12-25T10:18:39.694Z,0.68
2018-12-25T10:19:39.720Z,0.66
2018-12-25T10:20:39.741Z,0.66
2018-12-25T10:21:39.765Z,0.58
2018-12-25T10:22:39.799Z,0.63
2018-12-25T10:23:39.815Z,0.67
2018-12-25T10:24:39.840Z,0.70
2018-12-25T10:25:39.866Z,0.63
2018-12-25T10:26:39.889Z,0.66
2018-12-25T10:27:39.916Z,0.66
2018-12-25T10:28:39.936Z,0.63
2018-12-25T10:29:39.961Z,0.70
2018-12-25T10:30:39.985Z,0.68
2018-12-25T10:31:40.017Z,0.67
2018-12-25T10:32:40.032Z,0.70
2018-12-25T10:33:40.063Z,0.74
2018-12-25T10:34:40.086Z,0.66
2018-12-25T10:35:40.106Z,0.74
2018-12-25T10:36:40.132Z,0.74
2018-12-25T10:37:40.583Z,0.76
2018-12-25T10:38:40.179Z,0.73
2018-12-25T10:39:40.204Z,0.71
2018-12-25T10:40:40.236Z,0.73
2018-12-25T10:41:40.253Z,0.81
2018-12-25T10:42:40.275Z,0.78
2018-12-25T10:43:40.304Z,0.76
2018-12-25T10:44:40.328Z,0.70
2018-12-25T10:45:40.355Z,0.82
2018-12-25T10:46:40.373Z,0.86
2018-12-25T10:47:40.399Z,0.76
2018-12-25T10:48:40.423Z,0.70
2018-12-25T10:49:40.447Z,0.67
2018-12-25T10:50:41.865Z,0.81
2018-12-25T10:51:40.496Z,0.91
2018-12-25T10:52:40.521Z,0.74
2018-12-25T10:53:40.547Z,0.88
2018-12-25T10:54:40.572Z,0.84
2018-12-25T10:55:40.595Z,0.89
2018-12-25T10:56:40.622Z,0.81
2018-12-25T10:57:40.647Z,0.77
2018-12-25T10:58:40.671Z,0.74
2018-12-25T10:59:40.708Z,0.85
2018-12-25T11:00:40.734Z,0.89
2018-12-25T11:01:40.746Z,0.85
2018-12-25T11:02:40.767Z,0.78
2018-12-25T11:03:40.794Z,0.88
2018-12-25T11:04:40.820Z,0.77
2018-12-25T11:05:40.843Z,0.82
2018-12-25T11:06:40.867Z,0.84
2018-12-25T11:07:40.892Z,0.73
2018-12-25T11:08:40.918Z,0.67
2018-12-25T11:09:40.940Z,0.76
2018-12-25T11:10:40.966Z,0.77
2018-12-25T11:11:40.989Z,0.78
2018-12-25T11:12:41.018Z,0.78
2018-12-25T11:13:41.037Z,0.78
2018-12-25T11:14:41.066Z,0.81
2018-12-25T11:15:41.089Z,0.85
2018-12-25T11:16:41.115Z,0.67
2018-12-25T11:17:41.136Z,0.68
2018-12-25T11:18:48.933Z,0.67
2018-12-25T11:19:41.187Z,0.81
2018-12-25T11:20:41.213Z,0.67
2018-12-25T11:21:41.240Z,0.82
2018-12-25T11:22:41.260Z,0.82
2018-12-25T11:23:41.286Z,0.67
2018-12-25T11:24:41.309Z,0.73
2018-12-25T11:25:41.337Z,0.71
2018-12-25T11:26:41.361Z,0.71
2018-12-25T11:27:41.384Z,0.68
2018-12-25T11:28:41.408Z,0.81
2018-12-25T11:29:41.434Z,0.81
2018-12-25T11:30:41.464Z,0.70
2018-12-25T11:31:41.484Z,0.85
2018-12-25T11:32:41.509Z,0.78
2018-12-25T11:33:41.530Z,0.78
2018-12-25T11:34:41.557Z,0.74
2018-12-25T11:35:41.586Z,0.70
2018-12-25T11:36:41.604Z,0.77
2018-12-25T11:37:41.629Z,0.71
2018-12-25T11:38:41.658Z,0.71
2018-12-25T11:39:41.678Z,0.71
2018-12-25T11:40:41.701Z,0.78
2018-12-25T11:41:41.729Z,0.70
2018-12-25T11:42:41.750Z,0.84
2018-12-25T11:43:41.775Z,0.68
2018-12-25T11:44:41.797Z,0.78
2018-12-25T11:45:41.826Z,0.76
2018-12-25T11:46:41.850Z,0.70
2018-12-25T11:47:41.872Z,0.78
2018-12-25T11:48:41.895Z,0.82
2018-12-25T11:49:41.920Z,0.73
2018-12-25T11:50:41.948Z,0.73
2018-12-25T11:51:41.969Z,0.67
2018-12-25T11:52:41.998Z,0.77
2018-12-25T11:53:42.019Z,0.77
2018-12-25T11:54:42.043Z,0.78
2018-12-25T11:55:42.066Z,0.71
2018-12-25T11:56:42.091Z,0.70
2018-12-25T11:57:42.117Z,0.81
2018-12-25T11:58:42.145Z,0.82
2018-12-25T11:59:42.167Z,0.78
2018-12-25T12:00:42.191Z,0.81
2018-12-25T12:01:42.212Z,0.77
2018-12-25T12:02:42.237Z,0.82
2018-12-25T12:03:42.260Z,0.77
2018-12-25T12:04:42.369Z,0.84
2018-12-25T12:05:42.312Z,0.86
2018-12-25T12:06:42.337Z,0.70
2018-12-25T12:07:42.358Z,0.78
2018-12-25T12:08:42.382Z,0.76
2018-12-25T12:09:42.406Z,0.85
2018-12-25T12:10:42.434Z,0.67
2018-12-25T12:11:42.456Z,0.86
2018-12-25T12:12:42.483Z,0.82
2018-12-25T12:13:42.504Z,0.84
2018-12-25T12:14:42.532Z,0.68
2018-12-25T12:15:42.553Z,0.76
2018-12-25T12:16:42.580Z,0.67
2018-12-25T12:17:42.604Z,0.84
2018-12-25T12:18:42.631Z,0.70
2018-12-25T12:19:42.653Z,0.89
2018-12-25T12:20:42.675Z,0.84
2018-12-25T12:21:42.700Z,0.77
2018-12-25T12:22:42.727Z,0.77
2018-12-25T12:23:42.747Z,0.70
2018-12-25T12:24:42.770Z,0.85
2018-12-25T12:25:42.797Z,0.82
2018-12-25T12:26:42.820Z,0.71
2018-12-25T12:27:42.848Z,0.76
2018-12-25T12:28:42.875Z,0.84
2018-12-25T12:29:42.893Z,0.71
2018-12-25T12:30:42.918Z,0.77
2018-12-25T12:31:42.942Z,0.84
2018-12-25T12:32:42.965Z,0.73
2018-12-25T12:33:42.993Z,0.70
2018-12-25T12:34:43.018Z,0.77
2018-12-25T12:35:43.043Z,0.81
2018-12-25T12:36:43.063Z,0.81
2018-12-25T12:37:43.089Z,0.77
2018-12-25T12:38:43.111Z,0.89
2018-12-25T12:39:43.135Z,0.88
2018-12-25T12:40:43.160Z,0.82
2018-12-25T12:41:43.186Z,0.82
2018-12-25T12:42:43.207Z,0.86
2018-12-25T12:43:43.321Z,0.84
2018-12-25T12:44:43.255Z,0.86
2018-12-25T12:45:43.281Z,0.77
2018-12-25T12:46:43.305Z,0.89
2018-12-25T12:47:43.328Z,0.88
2018-12-25T12:48:43.357Z,0.89
2018-12-25T12:49:43.377Z,0.86
2018-12-25T12:50:43.406Z,0.82
2018-12-25T12:51:43.424Z,0.88
2018-12-25T12:52:45.628Z,0.81
2018-12-25T12:53:43.473Z,0.84
2018-12-25T12:54:43.496Z,0.91
2018-12-25T12:55:43.524Z,0.92
2018-12-25T12:56:43.545Z,0.84
2018-12-25T12:57:43.569Z,0.86
2018-12-25T12:58:43.595Z,0.89
2018-12-25T12:59:43.618Z,0.89